Skip Navigation Links Skip Navigation Links

Current Weather

Tracy Muni, Tracy, Calif.

For information only: do not use for flight planning or navigation.
Latest weather
Observation time Thursday, December 3, 2020 10:55 PM PST
Local time Thursday, December 3, 2020 11:11 PM PST
Flight conditions Visual Meteorological Conditions
Winds
Wind direction West-Southwest (240°)
Wind speed 6 mph
Visibility 10 mi.
Sky condition
Ceiling unlimited
Cloud layer few clouds 1,900 ft.
Temperature 50°F
Dewpoint 34°F
Altimeter 30.32 in.Hg
Derived measurements
Relative humidity 54%
Wind chill 48°F
Density altitude -760 ft.
Remarks
Fully automated report.
METAR KTCY 040655Z AUTO 24005KT 10SM FEW019 10/01 A3032 RMK A01

Settings

Location code

InnerDrive.Weather 4.0.6770.0 Release CLR 4.0.30319.42000
Copyright ©2018 Inner Drive Technology. All rights reserved. Portions Copyright ©1986-2018 David Braverman.

Find weather

Site navigation


Skip Navigation Links

Place info

Page info

PayPal - The safer, easier way to pay online!

Return home.

Copyright ©2020 Inner Drive Technology. Purveyors of fine, hand-crafted computer software. Page printed 2020-12-04T07:11:27 UTC.